Terminal Aerodrome Forecast
Issued by NWS Charleston, WV

Current Version | Previous Version | Graphics & Text | Print | Product List | Glossary On
Versions: 1 2 3 4 5 6 7 8 9 10 11 12 13 14 15 16 17 18 19 20 21 22 23
792
FTUS41 KRLX 211814 CCA
TAFHTS
TAF COR
KHTS 211814Z 2118/2218 21007KT P6SM SHRA SCT015 OVC045
     FM220500 19005KT 6SM SHRA BR OVC015
     FM221100 29004KT 4SM BR SCT025
     FM221300 29004KT P6SM SCT025
     FM221500 28005KT P6SM SCT035=

USA.gov is the U.S. government's official web portal to all federal, state and local government web resources and services.